Time;durP1;ratioP1;P1;durP2;ratioP2;P2;SDS_P1;SDS_P2;PMS_P1;PMS_P2;Temp;Humidity;BMP_temperature;BMP_pressure;BME280_temperature;BME280_humidity;BME280_pressure;Samples;Min_cycle;Max_cycle;Signal;HPM_P1;HPM_P2
2022/10/01 00:02:10;;;;;;;14.07;9.45;;;;;;;;;;5002960;28;20046;-68
2022/10/01 00:04:36;;;;;;;13.63;9.32;;;;;;;;;;5001298;28;20419;-67
2022/10/01 00:07:03;;;;;;;14.38;8.80;;;;;;;;;;5001200;28;20036;-67
2022/10/01 00:09:30;;;;;;;15.15;9.23;;;;;;;;;;5002647;28;20092;-69
2022/10/01 00:11:57;;;;;;;13.77;9.10;;;;;;;;;;5001140;28;20026;-69
2022/10/01 00:14:23;;;;;;;13.80;9.32;;;;;;;;;;5000967;28;20024;-68
2022/10/01 00:16:48;;;;;;;15.77;9.32;;;;;;;;;;5002081;28;20018;-66
2022/10/01 00:19:14;;;;;;;14.35;9.43;;;;;;;;;;5001097;28;20061;-67
2022/10/01 00:21:39;;;;;;;13.82;9.32;;;;;;;;;;5005221;28;20423;-67
2022/10/01 00:24:05;;;;;;;16.30;9.13;;;;;;;;;;5002034;28;20022;-66
2022/10/01 00:26:34;;;;;;;15.25;10.10;;;;;;;;;;5000450;28;20026;-69
2022/10/01 00:29:03;;;;;;;10.93;7.82;;;;;;;;;;5001510;28;20080;-67
2022/10/01 00:31:29;;;;;;;13.57;9.15;;;;;;;;;;5002471;28;20034;-67
2022/10/01 00:33:57;;;;;;;13.85;8.88;;;;;;;;;;5000603;28;20022;-67
2022/10/01 00:36:24;;;;;;;13.77;9.57;;;;;;;;;;5000661;28;20026;-69
2022/10/01 00:38:49;;;;;;;15.25;8.80;;;;;;;;;;5002010;28;20030;-69
2022/10/01 00:41:17;;;;;;;15.13;8.60;;;;;;;;;;5000580;28;20472;-68
2022/10/01 00:43:49;;;;;;;13.55;9.40;;;;;;;;;;5000673;28;20137;-69
2022/10/01 00:46:20;;;;;;;15.02;9.68;;;;;;;;;;5001807;28;20026;-69
2022/10/01 00:49:11;;;;;;;14.68;9.65;;;;;;;;;;5005512;28;20050;-69
2022/10/01 00:51:43;;;;;;;15.57;9.85;;;;;;;;;;5001326;28;20037;-69
2022/10/01 00:54:16;;;;;;;16.77;9.38;;;;;;;;;;5002056;28;20113;-69
2022/10/01 00:56:42;;;;;;;16.02;10.02;;;;;;;;;;5001425;28;20060;-69
2022/10/01 00:59:09;;;;;;;17.38;9.38;;;;;;;;;;4999805;28;20405;-68
2022/10/01 01:01:36;;;;;;;16.85;8.80;;;;;;;;;;5001417;28;20468;-69
2022/10/01 01:04:02;;;;;;;14.02;8.88;;;;;;;;;;5000678;28;20339;-68
2022/10/01 01:06:28;;;;;;;15.38;9.38;;;;;;;;;;4999733;28;20029;-71
2022/10/01 01:08:55;;;;;;;14.23;9.70;;;;;;;;;;5001511;28;20391;-66
2022/10/01 01:11:30;;;;;;;16.17;9.88;;;;;;;;;;5000754;28;20018;-69
2022/10/01 01:14:14;;;;;;;18.17;10.23;;;;;;;;;;5000120;28;20053;-71
2022/10/01 01:16:50;;;;;;;14.05;9.23;;;;;;;;;;5000765;28;20026;-71
2022/10/01 01:19:33;;;;;;;15.75;9.55;;;;;;;;;;4999900;28;20418;-71
2022/10/01 01:22:04;;;;;;;13.27;9.10;;;;;;;;;;5001697;28;20027;-70
2022/10/01 01:24:48;;;;;;;12.68;8.73;;;;;;;;;;4999491;28;20544;-70
2022/10/01 01:27:41;;;;;;;15.75;9.68;;;;;;;;;;4998793;28;20081;-72
2022/10/01 01:30:10;;;;;;;14.65;9.77;;;;;;;;;;5001296;28;20033;-69
2022/10/01 01:32:45;;;;;;;11.27;8.80;;;;;;;;;;4999707;28;20342;-67
2022/10/01 01:35:18;;;;;;;14.25;9.70;;;;;;;;;;4999460;28;20022;-71
2022/10/01 01:37:50;;;;;;;15.45;9.38;;;;;;;;;;5000124;28;20057;-71
2022/10/01 01:40:18;;;;;;;16.50;10.05;;;;;;;;;;5001072;28;20026;-71
2022/10/01 01:42:45;;;;;;;15.30;9.63;;;;;;;;;;5000867;28;20026;-69
2022/10/01 01:45:16;;;;;;;17.48;9.70;;;;;;;;;;4999409;28;20023;-71
2022/10/01 01:47:43;;;;;;;14.95;9.88;;;;;;;;;;4999857;28;20037;-69
2022/10/01 01:50:10;;;;;;;16.75;10.77;;;;;;;;;;5001252;28;20037;-69
2022/10/01 01:52:37;;;;;;;13.90;8.82;;;;;;;;;;4999780;28;20098;-69
2022/10/01 01:55:06;;;;;;;15.25;9.55;;;;;;;;;;5000109;28;20022;-69
2022/10/01 01:57:32;;;;;;;16.45;9.80;;;;;;;;;;5001124;28;20458;-69
2022/10/01 01:59:58;;;;;;;14.98;9.45;;;;;;;;;;4999846;28;20030;-67
2022/10/01 02:02:31;;;;;;;14.77;9.82;;;;;;;;;;4999491;28;20018;-67
2022/10/01 02:05:14;;;;;;;13.38;9.13;;;;;;;;;;5000638;28;20022;-67
2022/10/01 02:08:15;;;;;;;15.77;10.25;;;;;;;;;;5000030;28;20483;-68
2022/10/01 02:10:47;;;;;;;16.55;10.57;;;;;;;;;;5000234;28;20042;-67
2022/10/01 02:13:34;;;;;;;13.13;9.60;;;;;;;;;;4999081;28;20387;-66
2022/10/01 02:16:05;;;;;;;14.68;9.77;;;;;;;;;;4999856;28;20023;-66
2022/10/01 02:18:36;;;;;;;15.73;10.07;;;;;;;;;;4999010;28;20199;-66
2022/10/01 02:21:09;;;;;;;;;;;;;;;;;;5000316;28;20479;-69
2022/10/01 02:23:43;;;;;;;15.93;10.05;;;;;;;;;;4999460;28;19922;-69
2022/10/01 02:26:16;;;;;;;14.10;9.20;;;;;;;;;;4998836;28;20141;-67
2022/10/01 02:28:45;;;;;;;15.82;8.32;;;;;;;;;;4999800;28;20045;-66
2022/10/01 02:31:13;;;;;;;13.70;9.75;;;;;;;;;;5000941;28;20018;-67
2022/10/01 02:33:41;;;;;;;13.57;9.27;;;;;;;;;;4999606;28;20026;-67
2022/10/01 02:36:10;;;;;;;16.60;10.07;;;;;;;;;;4998917;28;20087;-67
2022/10/01 02:38:37;;;;;;;14.77;9.00;;;;;;;;;;5001277;28;20041;-69
2022/10/01 02:41:06;;;;;;;14.82;9.40;;;;;;;;;;5003673;28;20053;-68
2022/10/01 02:43:38;;;;;;;16.00;10.05;;;;;;;;;;5002257;28;20054;-68
2022/10/01 02:46:15;;;;;;;13.90;10.18;;;;;;;;;;5002666;28;20471;-68
2022/10/01 02:48:41;;;;;;;17.92;9.63;;;;;;;;;;5003037;28;20099;-66
2022/10/01 02:51:24;;;;;;;13.93;9.35;;;;;;;;;;5003918;28;20468;-67
2022/10/01 02:53:56;;;;;;;15.73;10.07;;;;;;;;;;5004014;28;20361;-68
2022/10/01 02:59:07;;;;;;;15.15;9.23;;;;;;;;;;5004129;28;20340;-69
2022/10/01 03:01:35;;;;;;;15.07;10.02;;;;;;;;;;5001805;28;20302;-69
2022/10/01 03:04:01;;;;;;;13.65;10.07;;;;;;;;;;5001521;28;20050;-69
2022/10/01 03:06:27;;;;;;;17.10;10.63;;;;;;;;;;5003743;28;20448;-68
2022/10/01 03:08:52;;;;;;;13.50;9.65;;;;;;;;;;5001810;28;20092;-68
2022/10/01 03:11:19;;;;;;;13.73;9.27;;;;;;;;;;5003234;28;20635;-69
2022/10/01 03:13:45;;;;;;;14.70;9.40;;;;;;;;;;5003328;28;20032;-69
2022/10/01 03:16:10;;;;;;;13.93;10.20;;;;;;;;;;5001323;28;20029;-68
2022/10/01 03:18:36;;;;;;;16.10;9.75;;;;;;;;;;5003301;28;20041;-70
2022/10/01 03:21:01;;;;;;;10.45;7.15;;;;;;;;;;5002754;28;20100;-68
2022/10/01 03:23:27;;;;;;;11.95;7.88;;;;;;;;;;5003302;28;20105;-67
2022/10/01 03:25:52;;;;;;;13.85;9.05;;;;;;;;;;5001475;28;20419;-67
2022/10/01 03:28:17;;;;;;;13.38;9.45;;;;;;;;;;5002809;28;20018;-68
2022/10/01 03:30:44;;;;;;;14.90;10.13;;;;;;;;;;5002456;28;20383;-67
2022/10/01 03:33:09;;;;;;;15.50;10.15;;;;;;;;;;5001377;28;20539;-68
2022/10/01 03:35:35;;;;;;;16.73;9.95;;;;;;;;;;5003186;28;20052;-68
2022/10/01 03:38:01;;;;;;;15.18;9.27;;;;;;;;;;5002023;28;20137;-68
2022/10/01 03:40:27;;;;;;;16.40;10.40;;;;;;;;;;5001571;28;20075;-68
2022/10/01 03:42:53;;;;;;;14.57;9.82;;;;;;;;;;5003170;28;20072;-70
2022/10/01 03:45:18;;;;;;;16.67;9.60;;;;;;;;;;5001708;28;20038;-67
2022/10/01 03:47:50;;;;;;;15.70;10.25;;;;;;;;;;5001727;28;20033;-68
2022/10/01 03:50:16;;;;;;;11.55;7.30;;;;;;;;;;5000864;28;20026;-70
2022/10/01 03:52:43;;;;;;;14.63;9.57;;;;;;;;;;5002057;28;20092;-70
2022/10/01 03:55:09;;;;;;;13.15;8.07;;;;;;;;;;5001207;28;20467;-70
2022/10/01 03:57:34;;;;;;;14.50;9.75;;;;;;;;;;5002620;28;20029;-69
2022/10/01 04:00:00;;;;;;;15.88;10.80;;;;;;;;;;5001629;28;20038;-70
2022/10/01 04:02:26;;;;;;;16.35;10.60;;;;;;;;;;5001447;28;20026;-70
2022/10/01 04:04:51;;;;;;;11.15;7.93;;;;;;;;;;5002581;28;20034;-69
2022/10/01 04:07:17;;;;;;;14.82;10.45;;;;;;;;;;5000857;28;20157;-69
2022/10/01 04:09:42;;;;;;;17.63;10.50;;;;;;;;;;5001682;28;20025;-70
2022/10/01 04:12:08;;;;;;;13.50;9.00;;;;;;;;;;5002111;28;20026;-70
2022/10/01 04:14:33;;;;;;;17.05;9.98;;;;;;;;;;5000643;28;20030;-70
2022/10/01 04:16:59;;;;;;;15.93;9.45;;;;;;;;;;5000700;28;20136;-69
2022/10/01 04:19:24;;;;;;;17.88;10.52;;;;;;;;;;5001736;28;20077;-70
2022/10/01 04:21:50;;;;;;;14.63;9.70;;;;;;;;;;5000289;28;20376;-70
2022/10/01 04:24:15;;;;;;;16.90;8.70;;;;;;;;;;5002148;28;20076;-67
2022/10/01 04:26:41;;;;;;;15.48;10.15;;;;;;;;;;4999939;28;20440;-68
2022/10/01 04:29:06;;;;;;;16.40;10.13;;;;;;;;;;5000581;28;20032;-70
2022/10/01 04:31:33;;;;;;;17.05;10.18;;;;;;;;;;5002118;28;20013;-69
2022/10/01 04:33:59;;;;;;;18.23;10.60;;;;;;;;;;5000675;28;20026;-70
2022/10/01 04:36:25;;;;;;;15.55;8.68;;;;;;;;;;5001013;28;20376;-70
2022/10/01 04:38:51;;;;;;;13.13;8.18;;;;;;;;;;5002134;28;20041;-67
2022/10/01 04:41:17;;;;;;;15.50;10.90;;;;;;;;;;5000243;28;20376;-67
2022/10/01 04:43:43;;;;;;;14.38;10.73;;;;;;;;;;5001096;28;20030;-70
2022/10/01 04:46:08;;;;;;;18.15;11.77;;;;;;;;;;5001941;28;20022;-69
2022/10/01 04:48:34;;;;;;;19.25;12.10;;;;;;;;;;4999758;28;20357;-69
2022/10/01 04:50:59;;;;;;;20.70;11.23;;;;;;;;;;5001431;28;20471;-69
2022/10/01 04:53:25;;;;;;;14.35;9.05;;;;;;;;;;5001297;28;20380;-67
2022/10/01 04:55:50;;;;;;;18.00;10.60;;;;;;;;;;4999605;28;20074;-67
2022/10/01 04:58:17;;;;;;;14.13;10.10;;;;;;;;;;5001839;28;20105;-67
2022/10/01 05:00:43;;;;;;;17.48;11.02;;;;;;;;;;5000875;28;20053;-69
2022/10/01 05:03:08;;;;;;;25.75;11.93;;;;;;;;;;5000012;28;20468;-70
2022/10/01 05:05:34;;;;;;;13.75;9.48;;;;;;;;;;5001714;28;20490;-67
2022/10/01 05:08:00;;;;;;;17.63;11.60;;;;;;;;;;5000263;28;20037;-69
2022/10/01 05:10:26;;;;;;;14.27;9.43;;;;;;;;;;5000176;28;20081;-67
2022/10/01 05:12:52;;;;;;;21.00;13.25;;;;;;;;;;5001707;28;20038;-67
2022/10/01 05:15:18;;;;;;;16.70;10.88;;;;;;;;;;4999940;28;20025;-67
2022/10/01 05:17:45;;;;;;;19.73;11.70;;;;;;;;;;5000342;28;20033;-70
2022/10/01 05:20:16;;;;;;;18.15;12.35;;;;;;;;;;5001264;28;20041;-67
2022/10/01 05:22:43;;;;;;;16.13;9.48;;;;;;;;;;5000443;28;20154;-70
2022/10/01 05:25:09;;;;;;;18.95;11.35;;;;;;;;;;4999354;28;20024;-67
2022/10/01 05:27:36;;;;;;;16.85;10.90;;;;;;;;;;5001230;28;20026;-68
2022/10/01 05:30:09;;;;;;;16.63;10.57;;;;;;;;;;5000193;28;20034;-68
2022/10/01 05:32:36;;;;;;;17.67;11.68;;;;;;;;;;4999428;28;20069;-67
2022/10/01 05:35:02;;;;;;;16.30;11.43;;;;;;;;;;5000641;28;20017;-68
2022/10/01 05:37:28;;;;;;;17.35;11.30;;;;;;;;;;5001090;28;20044;-70
2022/10/01 05:39:53;;;;;;;18.08;12.25;;;;;;;;;;4999084;28;20451;-68
2022/10/01 05:42:19;;;;;;;18.85;12.80;;;;;;;;;;5000895;28;20045;-67
2022/10/01 05:44:48;;;;;;;19.02;13.10;;;;;;;;;;5000356;28;20113;-68
2022/10/01 05:47:15;;;;;;;16.20;12.03;;;;;;;;;;4999271;28;20081;-67
2022/10/01 05:49:43;;;;;;;19.35;12.60;;;;;;;;;;5000683;28;20045;-67
2022/10/01 05:52:13;;;;;;;16.38;10.30;;;;;;;;;;4999739;28;20027;-67
2022/10/01 05:54:39;;;;;;;20.95;13.73;;;;;;;;;;4999489;28;20030;-66
2022/10/01 05:57:06;;;;;;;18.75;11.48;;;;;;;;;;4999883;28;20088;-67
2022/10/01 05:59:35;;;;;;;17.90;12.48;;;;;;;;;;5001113;28;20117;-67
2022/10/01 06:02:02;;;;;;;11.15;7.35;;;;;;;;;;4999704;28;20048;-67
2022/10/01 06:04:28;;;;;;;16.00;12.30;;;;;;;;;;4999424;28;20022;-67
2022/10/01 06:06:53;;;;;;;18.60;10.40;;;;;;;;;;5001241;28;20087;-68
2022/10/01 06:09:19;;;;;;;13.35;8.35;;;;;;;;;;4999277;28;20464;-69
2022/10/01 06:11:47;;;;;;;17.40;11.23;;;;;;;;;;4999943;28;20494;-67
2022/10/01 06:14:13;;;;;;;18.13;11.75;;;;;;;;;;5002646;28;20018;-67
2022/10/01 06:16:38;;;;;;;20.08;11.55;;;;;;;;;;5003209;28;20041;-69
2022/10/01 06:19:04;;;;;;;14.02;8.90;;;;;;;;;;5003428;28;20399;-70
2022/10/01 06:21:30;;;;;;;17.15;11.55;;;;;;;;;;5004446;28;20027;-68
2022/10/01 06:23:56;;;;;;;17.88;10.93;;;;;;;;;;5002061;28;20021;-68
2022/10/01 06:26:22;;;;;;;21.02;12.38;;;;;;;;;;5003566;28;20056;-68
2022/10/01 06:28:49;;;;;;;17.75;11.10;;;;;;;;;;5002670;28;20113;-68
2022/10/01 06:31:15;;;;;;;16.17;10.48;;;;;;;;;;5002356;28;20015;-68
2022/10/01 06:33:40;;;;;;;17.60;11.25;;;;;;;;;;5003722;28;20025;-68
2022/10/01 06:36:06;;;;;;;21.13;11.13;;;;;;;;;;5003718;28;20057;-69
2022/10/01 06:38:31;;;;;;;16.33;11.10;;;;;;;;;;5002496;28;20038;-68
2022/10/01 06:40:59;;;;;;;15.98;10.77;;;;;;;;;;5004295;28;20392;-68
2022/10/01 06:43:26;;;;;;;15.40;11.43;;;;;;;;;;5003669;28;20468;-68
2022/10/01 06:45:51;;;;;;;15.23;10.60;;;;;;;;;;5002100;28;20037;-68
2022/10/01 06:48:19;;;;;;;14.15;9.90;;;;;;;;;;5003863;28;20026;-70
2022/10/01 06:50:46;;;;;;;17.17;9.93;;;;;;;;;;5003283;28;20420;-67
2022/10/01 06:53:13;;;;;;;15.60;10.07;;;;;;;;;;5002022;28;20033;-67
2022/10/01 06:55:39;;;;;;;14.68;9.68;;;;;;;;;;5003877;28;20018;-68
2022/10/01 06:58:19;;;;;;;15.32;9.20;;;;;;;;;;5003122;28;20024;-69
2022/10/01 07:00:45;;;;;;;;;;;;;;;;;;5003606;28;20427;-69
2022/10/01 07:03:14;;;;;;;18.48;8.80;;;;;;;;;;5002023;28;19926;-69
2022/10/01 07:05:40;;;;;;;13.93;9.80;;;;;;;;;;5002383;28;20060;-69
2022/10/01 07:08:06;;;;;;;12.80;7.97;;;;;;;;;;5001991;28;20057;-67
2022/10/01 07:10:33;;;;;;;14.80;9.50;;;;;;;;;;5014640;28;20088;-68
2022/10/01 07:13:24;;;;;;;16.33;10.13;;;;;;;;;;5023128;28;20021;-69
2022/10/01 07:15:50;;;;;;;13.35;8.95;;;;;;;;;;5019342;28;20100;-68
2022/10/01 07:18:15;;;;;;;12.27;8.48;;;;;;;;;;5021125;28;20049;-68
2022/10/01 07:20:41;;;;;;;11.88;8.85;;;;;;;;;;5020570;28;20053;-68
2022/10/01 07:23:10;;;;;;;11.57;8.90;;;;;;;;;;5022381;28;20041;-68
2022/10/01 07:25:37;;;;;;;11.27;8.02;;;;;;;;;;5022063;28;20112;-67
2022/10/01 07:28:04;;;;;;;12.65;8.52;;;;;;;;;;5009027;28;20030;-69
2022/10/01 07:30:30;;;;;;;14.38;8.55;;;;;;;;;;5001571;28;20025;-68
2022/10/01 07:32:56;;;;;;;9.00;6.53;;;;;;;;;;5000488;28;20486;-69
2022/10/01 07:35:22;;;;;;;10.95;7.78;;;;;;;;;;5001211;28;20031;-69
2022/10/01 07:37:48;;;;;;;11.18;7.68;;;;;;;;;;5011200;28;20040;-69
2022/10/01 07:40:17;;;;;;;11.10;7.40;;;;;;;;;;5021546;28;20442;-69
2022/10/01 07:42:53;;;;;;;10.10;6.55;;;;;;;;;;5020707;28;20025;-67
2022/10/01 07:45:18;;;;;;;11.85;6.55;;;;;;;;;;5020633;28;20021;-68
2022/10/01 07:47:54;;;;;;;8.52;6.20;;;;;;;;;;5022464;28;20470;-69
2022/10/01 07:50:19;;;;;;;6.68;4.25;;;;;;;;;;5022445;28;21056;-67
2022/10/01 07:52:49;;;;;;;12.93;6.03;;;;;;;;;;5017818;28;20029;-67
2022/10/01 07:55:15;;;;;;;7.55;5.13;;;;;;;;;;5021203;28;20100;-68
2022/10/01 07:57:40;;;;;;;13.38;5.93;;;;;;;;;;5022289;28;20116;-68
2022/10/01 08:00:07;;;;;;;9.98;5.78;;;;;;;;;;5020520;28;20037;-67
2022/10/01 08:02:34;;;;;;;8.40;5.45;;;;;;;;;;5021215;28;20032;-67
2022/10/01 08:05:17;;;;;;;8.77;5.53;;;;;;;;;;5022041;28;20538;-67
2022/10/01 08:07:44;;;;;;;11.05;5.95;;;;;;;;;;5021011;28;20029;-68
2022/10/01 08:10:10;;;;;;;8.13;4.72;;;;;;;;;;5019729;28;20547;-67
2022/10/01 08:12:35;;;;;;;6.30;5.10;;;;;;;;;;5010832;28;20041;-69
2022/10/01 08:15:01;;;;;;;9.63;5.93;;;;;;;;;;5003520;28;20109;-67
2022/10/01 08:17:27;;;;;;;8.40;5.65;;;;;;;;;;5002725;28;20530;-67
2022/10/01 08:19:52;;;;;;;9.63;5.53;;;;;;;;;;5003888;28;20053;-67
2022/10/01 08:22:18;;;;;;;11.68;6.00;;;;;;;;;;5004697;28;20026;-67
2022/10/01 08:24:43;;;;;;;12.02;5.30;;;;;;;;;;5001498;28;20071;-68
2022/10/01 08:27:09;;;;;;;7.68;5.50;;;;;;;;;;5001422;28;20084;-67
2022/10/01 08:29:34;;;;;;;8.95;5.88;;;;;;;;;;5001156;28;20042;-68
2022/10/01 08:32:00;;;;;;;11.15;6.13;;;;;;;;;;5001005;28;20025;-67
2022/10/01 08:34:25;;;;;;;6.10;4.85;;;;;;;;;;5001410;28;20038;-68
2022/10/01 08:36:51;;;;;;;10.68;6.10;;;;;;;;;;5006318;28;20541;-67
2022/10/01 08:39:17;;;;;;;7.65;5.00;;;;;;;;;;5012347;28;20444;-68
2022/10/01 08:41:58;;;;;;;12.02;5.38;;;;;;;;;;5012249;28;20434;-68
2022/10/01 08:44:29;;;;;;;8.50;4.75;;;;;;;;;;5012156;28;20030;-67
2022/10/01 08:47:00;;;;;;;8.65;5.60;;;;;;;;;;5012346;28;20491;-68
2022/10/01 08:49:37;;;;;;;8.00;5.53;;;;;;;;;;5011856;28;20035;-68
2022/10/01 08:52:18;;;;;;;7.15;4.00;;;;;;;;;;5012299;28;20109;-68
2022/10/01 08:54:55;;;;;;;7.13;5.13;;;;;;;;;;5012027;28;20021;-67
2022/10/01 08:57:24;;;;;;;8.57;5.15;;;;;;;;;;5012209;28;20081;-68
2022/10/01 08:59:56;;;;;;;7.55;4.80;;;;;;;;;;5009915;28;20018;-67
2022/10/01 09:02:28;;;;;;;7.85;5.28;;;;;;;;;;5014552;28;20029;-67
2022/10/01 09:04:56;;;;;;;7.07;5.22;;;;;;;;;;5032630;28;20112;-67
2022/10/01 09:07:35;;;;;;;7.38;4.57;;;;;;;;;;5015510;28;20038;-67
2022/10/01 09:10:39;;;;;;;8.95;5.30;;;;;;;;;;5012559;28;20144;-67
2022/10/01 09:13:05;;;;;;;9.68;5.13;;;;;;;;;;5008426;28;20064;-67
2022/10/01 09:15:46;;;;;;;8.35;4.65;;;;;;;;;;5009331;28;20113;-68
2022/10/01 09:18:30;;;;;;;10.55;4.60;;;;;;;;;;5008638;28;20038;-68
2022/10/01 09:20:59;;;;;;;9.38;4.78;;;;;;;;;;5003747;28;20120;-68
2022/10/01 09:23:58;;;;;;;10.43;4.75;;;;;;;;;;4989106;28;20454;-67
2022/10/01 09:26:24;;;;;;;6.57;4.35;;;;;;;;;;4989126;28;20417;-67
2022/10/01 09:28:53;;;;;;;5.15;3.47;;;;;;;;;;4989022;28;20035;-68
2022/10/01 09:31:28;;;;;;;8.05;4.70;;;;;;;;;;4988565;28;20026;-68
2022/10/01 09:34:08;;;;;;;8.57;4.13;;;;;;;;;;4988968;28;20031;-68
2022/10/01 09:36:38;;;;;;;6.88;4.20;;;;;;;;;;4989062;28;20044;-67
2022/10/01 09:39:27;;;;;;;7.97;4.43;;;;;;;;;;5000978;28;20343;-68
2022/10/01 09:41:53;;;;;;;6.68;3.65;;;;;;;;;;5008504;28;20058;-68
2022/10/01 09:44:27;;;;;;;8.18;3.70;;;;;;;;;;5008367;28;20060;-67
2022/10/01 09:46:56;;;;;;;9.05;4.85;;;;;;;;;;4998623;28;20026;-68
2022/10/01 09:49:44;;;;;;;5.50;3.58;;;;;;;;;;5002953;28;20038;-67
2022/10/01 09:52:17;;;;;;;8.20;4.40;;;;;;;;;;5004186;28;20038;-68
2022/10/01 09:54:59;;;;;;;10.93;4.35;;;;;;;;;;5006246;28;20108;-67
2022/10/01 09:57:33;;;;;;;9.00;5.63;;;;;;;;;;5004830;28;20022;-67
2022/10/01 10:00:18;;;;;;;6.47;4.20;;;;;;;;;;4996265;28;20084;-67
2022/10/01 10:02:46;;;;;;;7.45;4.22;;;;;;;;;;4996505;28;20101;-68
2022/10/01 10:05:19;;;;;;;7.30;4.43;;;;;;;;;;4996256;28;20443;-69
2022/10/01 10:07:49;;;;;;;7.53;4.38;;;;;;;;;;4996362;28;20033;-68
2022/10/01 10:10:19;;;;;;;10.50;4.07;;;;;;;;;;4996473;28;20483;-68
2022/10/01 10:12:47;;;;;;;7.93;4.07;;;;;;;;;;4995199;28;20026;-68
2022/10/01 10:15:16;;;;;;;6.80;3.78;;;;;;;;;;4996206;28;20506;-69
2022/10/01 10:17:45;;;;;;;8.80;2.83;;;;;;;;;;4996420;28;20045;-67
2022/10/01 10:20:28;;;;;;;7.95;4.32;;;;;;;;;;4994661;28;20085;-68
2022/10/01 10:23:05;;;;;;;6.03;3.45;;;;;;;;;;4996070;28;20451;-69
2022/10/01 10:25:30;;;;;;;6.10;3.70;;;;;;;;;;4994964;28;20030;-70
2022/10/01 10:27:58;;;;;;;5.03;3.25;;;;;;;;;;4995938;28;20033;-68
2022/10/01 10:30:25;;;;;;;5.57;3.33;;;;;;;;;;4995984;28;20023;-67
2022/10/01 10:32:52;;;;;;;5.70;2.65;;;;;;;;;;4996115;28;20051;-68
2022/10/01 10:35:25;;;;;;;7.85;3.17;;;;;;;;;;4995941;28;20023;-67
2022/10/01 10:37:53;;;;;;;5.20;3.33;;;;;;;;;;5013643;28;20038;-67
2022/10/01 10:40:45;;;;;;;9.77;3.38;;;;;;;;;;5015570;28;20034;-67
2022/10/01 10:43:24;;;;;;;8.30;3.17;;;;;;;;;;5014353;28;20038;-68
2022/10/01 10:45:57;;;;;;;15.00;5.18;;;;;;;;;;5014108;28;20022;-67
2022/10/01 10:48:36;;;;;;;10.50;3.60;;;;;;;;;;5015252;28;20026;-67
2022/10/01 10:51:04;;;;;;;7.53;2.72;;;;;;;;;;5015592;28;20018;-66
2022/10/01 10:53:43;;;;;;;5.03;2.72;;;;;;;;;;5013478;28;20025;-66
2022/10/01 10:56:22;;;;;;;6.57;3.00;;;;;;;;;;5015114;28;20022;-67
2022/10/01 10:58:49;;;;;;;5.80;2.97;;;;;;;;;;5014972;28;20041;-66
2022/10/01 11:01:18;;;;;;;7.70;2.90;;;;;;;;;;5014782;28;20475;-67
2022/10/01 11:03:54;;;;;;;5.20;2.77;;;;;;;;;;5015723;28;20132;-66
2022/10/01 11:06:20;;;;;;;5.47;3.15;;;;;;;;;;5018103;28;20026;-67
2022/10/01 11:08:56;;;;;;;8.02;2.95;;;;;;;;;;5034625;28;20037;-67
2022/10/01 11:11:22;;;;;;;3.97;2.67;;;;;;;;;;5033514;28;20040;-68
2022/10/01 11:14:10;;;;;;;4.40;2.90;;;;;;;;;;5017179;28;20026;-67
2022/10/01 11:16:58;;;;;;;3.72;2.72;;;;;;;;;;5031703;28;20026;-67
2022/10/01 11:20:00;;;;;;;6.25;2.80;;;;;;;;;;5034029;28;20049;-67
2022/10/01 11:23:02;;;;;;;3.42;2.40;;;;;;;;;;5000861;28;20124;-67
2022/10/01 11:25:33;;;;;;;6.75;3.00;;;;;;;;;;4981731;28;20038;-67
2022/10/01 11:28:06;;;;;;;5.82;2.58;;;;;;;;;;5005364;28;20025;-66
2022/10/01 11:30:52;;;;;;;8.65;2.83;;;;;;;;;;5014522;28;20084;-67
2022/10/01 11:33:44;;;;;;;4.68;2.60;;;;;;;;;;5014475;28;20075;-67
2022/10/01 11:36:24;;;;;;;7.55;2.67;;;;;;;;;;5014340;28;20025;-66
2022/10/01 11:38:59;;;;;;;8.00;2.75;;;;;;;;;;5014374;28;20026;-67
2022/10/01 11:41:43;;;;;;;4.18;2.97;;;;;;;;;;5012946;28;20445;-67
2022/10/01 11:44:31;;;;;;;4.43;2.88;;;;;;;;;;5013842;28;20426;-68
2022/10/01 11:47:00;;;;;;;6.53;2.78;;;;;;;;;;5014393;28;20034;-66
2022/10/01 11:49:48;;;;;;;6.50;3.67;;;;;;;;;;5013805;28;20112;-66
2022/10/01 11:52:45;;;;;;;6.18;2.60;;;;;;;;;;5014386;28;20058;-66
2022/10/01 12:01:09;;;;;;;4.97;2.17;;;;;;;;;;5005073;28;20050;-66
2022/10/01 12:03:53;;;;;;;4.93;2.50;;;;;;;;;;4991884;28;20054;-66
2022/10/01 12:06:30;;;;;;;2.85;1.85;;;;;;;;;;4991481;28;20130;-66
2022/10/01 12:09:05;;;;;;;3.72;2.30;;;;;;;;;;4992061;28;20481;-66
2022/10/01 12:11:39;;;;;;;3.40;2.25;;;;;;;;;;4991102;28;20044;-66
2022/10/01 12:14:19;;;;;;;2.97;1.70;;;;;;;;;;4992003;28;20034;-65
2022/10/01 12:16:51;;;;;;;4.88;2.30;;;;;;;;;;4991875;28;20031;-66
2022/10/01 12:19:39;;;;;;;2.60;2.03;;;;;;;;;;5005937;28;20084;-67
2022/10/01 12:22:33;;;;;;;4.70;2.30;;;;;;;;;;4997440;28;20074;-67
2022/10/01 12:24:59;;;;;;;6.00;2.78;;;;;;;;;;4985948;28;20039;-67
2022/10/01 12:27:33;;;;;;;5.00;2.63;;;;;;;;;;4991646;28;20411;-67
2022/10/01 12:30:14;;;;;;;4.65;2.40;;;;;;;;;;4991347;28;20038;-67
2022/10/01 12:32:58;;;;;;;4.82;2.63;;;;;;;;;;4991833;28;20150;-66
2022/10/01 12:35:46;;;;;;;4.07;2.55;;;;;;;;;;4991605;28;20030;-68
2022/10/01 12:38:47;;;;;;;6.75;2.50;;;;;;;;;;4991896;28;20121;-67
2022/10/01 12:41:25;;;;;;;;;;;;;;;;;;4983332;28;20070;-67
2022/10/01 12:44:03;;;;;;;5.85;2.55;;;;;;;;;;4993787;28;20454;-67
2022/10/01 12:47:04;;;;;;;4.45;2.50;;;;;;;;;;4993940;28;20037;-68
2022/10/01 12:49:44;;;;;;;5.90;2.58;;;;;;;;;;4933360;29;20122;-67
2022/10/01 12:52:32;;;;;;;7.03;3.42;;;;;;;;;;4933290;29;20099;-67
2022/10/01 12:55:16;;;;;;;3.67;2.60;;;;;;;;;;4933462;29;20040;-67
2022/10/01 12:57:47;;;;;;;3.75;2.30;;;;;;;;;;4933568;29;20027;-67
2022/10/01 13:00:23;;;;;;;7.13;3.15;;;;;;;;;;4932993;29;20572;-68
2022/10/01 13:03:26;;;;;;;4.55;3.03;;;;;;;;;;4933473;29;20035;-68
2022/10/01 13:06:24;;;;;;;5.80;2.45;;;;;;;;;;4933487;29;20087;-67
2022/10/01 13:09:08;;;;;;;6.65;2.65;;;;;;;;;;4915843;29;20071;-68
2022/10/01 13:11:51;;;;;;;5.53;3.20;;;;;;;;;;4932363;29;20112;-67
2022/10/01 13:14:18;;;;;;;4.15;2.67;;;;;;;;;;4933038;29;20055;-68
2022/10/01 13:17:01;;;;;;;5.68;3.20;;;;;;;;;;4933231;29;20129;-66
2022/10/01 13:19:51;;;;;;;6.50;2.65;;;;;;;;;;4918562;29;20067;-67
2022/10/01 13:22:31;;;;;;;3.67;2.42;;;;;;;;;;4913471;29;20035;-68
2022/10/01 13:25:19;;;;;;;3.92;2.80;;;;;;;;;;4913746;29;20158;-65
2022/10/01 13:28:15;;;;;;;2.97;2.08;;;;;;;;;;4978029;28;20038;-68
2022/10/01 13:31:08;;;;;;;5.22;2.95;;;;;;;;;;4985640;28;20229;-68
2022/10/01 13:33:35;;;;;;;3.38;2.38;;;;;;;;;;4990520;28;20027;-68
2022/10/01 13:36:03;;;;;;;6.63;2.80;;;;;;;;;;4990451;28;20113;-69
2022/10/01 13:38:29;;;;;;;4.18;2.70;;;;;;;;;;4990375;28;20046;-69
2022/10/01 13:41:03;;;;;;;4.45;3.42;;;;;;;;;;4988806;28;20096;-72
2022/10/01 13:43:32;;;;;;;4.80;2.58;;;;;;;;;;4993071;28;20548;-71
2022/10/01 13:46:09;;;;;;;6.03;3.30;;;;;;;;;;5012722;28;20026;-72
2022/10/01 13:48:44;;;;;;;4.22;3.00;;;;;;;;;;5012404;28;20026;-71
2022/10/01 13:51:14;;;;;;;6.00;3.50;;;;;;;;;;5012495;28;20026;-69
2022/10/01 13:53:42;;;;;;;5.80;3.30;;;;;;;;;;5012014;28;20033;-72
2022/10/01 13:56:13;;;;;;;4.78;3.30;;;;;;;;;;5011450;28;20030;-71
2022/10/01 13:58:45;;;;;;;5.38;3.58;;;;;;;;;;5012369;28;20037;-72
2022/10/01 14:01:13;;;;;;;7.22;3.80;;;;;;;;;;5012385;28;20459;-72
2022/10/01 14:03:48;;;;;;;4.72;3.47;;;;;;;;;;5012278;28;20037;-72
2022/10/01 14:06:41;;;;;;;4.35;3.45;;;;;;;;;;5012206;28;20029;-75
2022/10/01 14:09:26;;;;;;;5.25;3.50;;;;;;;;;;5011758;28;20475;-73
2022/10/01 14:17:48;;;;;;;4.55;3.40;;;;;;;;;;5012447;28;20491;-72
2022/10/01 14:20:22;;;;;;;4.03;3.08;;;;;;;;;;5017603;28;20049;-72
2022/10/01 14:22:56;;;;;;;5.00;3.55;;;;;;;;;;5021269;28;20064;-70
2022/10/01 14:25:41;;;;;;;5.13;3.20;;;;;;;;;;5019518;28;20033;-71
2022/10/01 14:28:26;;;;;;;5.38;3.45;;;;;;;;;;5020604;28;20030;-72
2022/10/01 14:30:51;;;;;;;4.95;3.47;;;;;;;;;;5021985;28;20538;-70
2022/10/01 14:33:17;;;;;;;5.43;3.63;;;;;;;;;;5020489;28;20107;-71
2022/10/01 14:36:00;;;;;;;4.80;3.47;;;;;;;;;;5023555;28;20032;-72
2022/10/01 14:38:27;;;;;;;5.10;3.10;;;;;;;;;;5024264;28;20113;-72
2022/10/01 14:40:53;;;;;;;4.40;3.35;;;;;;;;;;5015605;28;20034;-72
2022/10/01 14:43:22;;;;;;;7.32;4.07;;;;;;;;;;5025627;28;20025;-71
2022/10/01 14:45:51;;;;;;;6.95;4.30;;;;;;;;;;5021833;28;20018;-71
2022/10/01 14:48:17;;;;;;;6.38;4.57;;;;;;;;;;5021249;28;20030;-71
2022/10/01 14:50:46;;;;;;;5.78;4.20;;;;;;;;;;5014836;28;20493;-70
2022/10/01 14:53:16;;;;;;;6.78;4.05;;;;;;;;;;5013996;28;20085;-72
2022/10/01 14:55:42;;;;;;;6.05;4.38;;;;;;;;;;5015416;28;20088;-72
2022/10/01 14:58:21;;;;;;;6.25;4.28;;;;;;;;;;5015145;28;20382;-70
2022/10/01 15:00:51;;;;;;;5.15;3.88;;;;;;;;;;5015160;28;20516;-71
2022/10/01 15:03:17;;;;;;;5.22;3.97;;;;;;;;;;5015096;28;20109;-68
2022/10/01 15:05:45;;;;;;;8.50;4.07;;;;;;;;;;5014727;28;20164;-69
2022/10/01 15:08:16;;;;;;;4.78;3.30;;;;;;;;;;5014875;28;20463;-71
2022/10/01 15:10:49;;;;;;;6.28;4.35;;;;;;;;;;5013774;28;20043;-69
2022/10/01 15:13:35;;;;;;;6.10;4.55;;;;;;;;;;5014621;28;20037;-68
2022/10/01 15:16:01;;;;;;;6.43;4.32;;;;;;;;;;5013496;28;20029;-69